createdAt,value
2023-02-28T00:00:38.733Z,77.88
2023-02-28T00:03:06.017Z,77.42
2023-02-28T00:05:34.419Z,77.54
2023-02-28T00:08:01.608Z,77.70
2023-02-28T00:10:30.637Z,77.61
2023-02-28T00:13:02.983Z,77.51
2023-02-28T00:15:30.293Z,78.26
2023-02-28T00:17:57.378Z,77.72
2023-02-28T00:20:25.154Z,77.59
2023-02-28T00:22:53.393Z,77.71
2023-02-28T00:25:23.253Z,77.56
2023-02-28T00:27:50.391Z,77.70
2023-02-28T00:30:23.039Z,77.20
2023-02-28T00:32:51.216Z,77.97
2023-02-28T00:35:18.405Z,77.30
2023-02-28T00:37:45.425Z,77.67
2023-02-28T00:40:13.131Z,77.35
2023-02-28T00:42:40.282Z,77.16
2023-02-28T00:45:09.059Z,76.80
2023-02-28T00:47:36.404Z,76.97
2023-02-28T00:50:04.526Z,77.05
2023-02-28T00:52:31.608Z,77.72
2023-02-28T00:54:58.662Z,77.48
2023-02-28T00:57:25.709Z,78.09
2023-02-28T00:59:55.143Z,78.24
2023-02-28T01:02:23.479Z,77.14
2023-02-28T01:04:50.686Z,77.33
2023-02-28T01:07:17.744Z,77.21
2023-02-28T01:09:44.817Z,78.07
2023-02-28T01:12:11.961Z,77.87
2023-02-28T01:14:39.025Z,77.56
2023-02-28T01:17:06.151Z,77.76
2023-02-28T01:19:33.421Z,77.79
2023-02-28T01:22:04.879Z,78.05
2023-02-28T01:24:34.223Z,77.80
2023-02-28T01:27:01.671Z,78.20
2023-02-28T01:29:28.758Z,77.93
2023-02-28T01:31:55.854Z,77.02
2023-02-28T01:34:23.002Z,77.61
2023-02-28T01:36:50.028Z,76.71
2023-02-28T01:39:17.056Z,77.34
2023-02-28T01:41:44.225Z,78.03
2023-02-28T01:44:48.467Z,78.08
2023-02-28T01:47:15.923Z,78.08
2023-02-28T01:49:43.097Z,78.30
2023-02-28T01:52:16.031Z,78.63
2023-02-28T01:54:43.406Z,78.40
2023-02-28T01:57:16.470Z,78.76
2023-02-28T01:59:59.534Z,78.46
2023-02-28T02:02:27.392Z,78.28
2023-02-28T02:04:57.950Z,78.96
2023-02-28T02:07:26.309Z,79.07
2023-02-28T02:10:12.739Z,79.10
2023-02-28T02:13:04.035Z,78.72
2023-02-28T02:15:43.635Z,79.04
2023-02-28T02:18:47.950Z,78.98
2023-02-28T02:21:48.713Z,78.67
2023-02-28T02:24:48.842Z,78.71
2023-02-28T02:27:30.685Z,78.67
2023-02-28T02:30:20.928Z,78.67
2023-02-28T02:33:11.492Z,78.99
2023-02-28T02:35:44.580Z,78.95
2023-02-28T02:38:28.761Z,78.57
2023-02-28T02:41:05.180Z,79.04
2023-02-28T02:43:47.459Z,79.30
2023-02-28T02:46:36.431Z,79.94
2023-02-28T02:49:07.350Z,79.51
2023-02-28T02:51:34.968Z,79.18
2023-02-28T02:54:29.629Z,79.44
2023-02-28T02:56:59.652Z,79.66
2023-02-28T02:59:27.628Z,79.58
2023-02-28T03:01:57.602Z,79.47
2023-02-28T03:04:26.256Z,79.01
2023-02-28T03:06:56.227Z,79.62
2023-02-28T03:09:24.148Z,79.44
2023-02-28T03:11:53.558Z,79.58
2023-02-28T03:14:28.398Z,79.71
2023-02-28T03:17:03.072Z,79.37
2023-02-28T03:20:08.503Z,79.26
2023-02-28T03:22:54.421Z,79.45
2023-02-28T03:25:39.061Z,79.45
2023-02-28T03:28:22.594Z,79.22
2023-02-28T03:31:00.580Z,79.46
2023-02-28T03:33:29.288Z,79.80
2023-02-28T03:36:11.608Z,79.48
2023-02-28T03:38:52.182Z,79.60
2023-02-28T03:41:31.172Z,79.45
2023-02-28T03:44:02.002Z,79.83
2023-02-28T03:46:32.294Z,79.82
2023-02-28T03:49:16.041Z,79.65
2023-02-28T03:51:44.117Z,79.19
2023-02-28T03:54:15.581Z,79.33
2023-02-28T03:57:03.430Z,79.43
2023-02-28T03:59:44.421Z,79.55
2023-02-28T04:02:11.528Z,79.88
2023-02-28T04:04:38.758Z,79.67
2023-02-28T04:07:08.547Z,79.84
2023-02-28T04:09:35.892Z,79.45
2023-02-28T04:12:02.966Z,79.24
2023-02-28T04:14:30.045Z,79.07
2023-02-28T04:16:57.096Z,79.72
2023-02-28T04:19:24.133Z,79.79
2023-02-28T04:21:52.530Z,79.56
2023-02-28T04:24:22.314Z,79.37
2023-02-28T04:26:51.556Z,79.56
2023-02-28T04:29:27.159Z,79.60
2023-02-28T04:31:55.485Z,79.77
2023-02-28T04:34:22.717Z,79.65
2023-02-28T04:37:11.603Z,79.30
2023-02-28T04:39:39.318Z,79.38
2023-02-28T04:42:06.423Z,79.47
2023-02-28T04:44:33.521Z,79.04
2023-02-28T04:47:01.101Z,79.05
2023-02-28T04:49:28.184Z,79.22
2023-02-28T04:51:55.297Z,79.11
2023-02-28T04:54:23.195Z,78.84
2023-02-28T04:56:50.859Z,79.19
2023-02-28T04:59:18.385Z,79.48
2023-02-28T05:01:51.927Z,78.97
2023-02-28T05:04:19.139Z,79.37
2023-02-28T05:06:46.181Z,79.47
2023-02-28T05:09:13.523Z,79.43
2023-02-28T05:11:40.883Z,79.58
2023-02-28T05:14:12.253Z,79.61
2023-02-28T05:16:39.424Z,79.58
2023-02-28T05:19:06.582Z,79.51
2023-02-28T05:21:40.267Z,79.35
2023-02-28T05:24:11.648Z,79.75
2023-02-28T05:26:42.136Z,79.62
2023-02-28T05:29:09.937Z,79.79
2023-02-28T05:31:37.612Z,79.64
2023-02-28T05:34:05.368Z,79.71
2023-02-28T05:36:32.527Z,79.61
2023-02-28T05:38:59.887Z,79.52
2023-02-28T05:41:27.503Z,79.95
2023-02-28T05:43:54.795Z,79.37
2023-02-28T05:46:21.890Z,79.65
2023-02-28T05:48:49.251Z,79.44
2023-02-28T05:51:17.109Z,79.43
2023-02-28T05:53:45.315Z,79.46
2023-02-28T05:56:12.433Z,79.32
2023-02-28T05:58:39.566Z,79.63
2023-02-28T06:01:21.718Z,79.65
2023-02-28T06:03:48.750Z,79.51
2023-02-28T06:06:15.785Z,79.72
2023-02-28T06:08:44.417Z,79.41
2023-02-28T06:11:11.523Z,79.82
2023-02-28T06:13:38.591Z,79.67
2023-02-28T06:16:05.912Z,79.76
2023-02-28T06:18:32.968Z,79.62
2023-02-28T06:21:00.034Z,79.23
2023-02-28T06:23:27.132Z,79.28
2023-02-28T06:25:54.323Z,79.62
2023-02-28T06:28:21.392Z,79.06
2023-02-28T06:30:48.481Z,79.34
2023-02-28T06:33:15.525Z,79.50
2023-02-28T06:35:45.786Z,79.60
2023-02-28T06:38:13.044Z,79.57
2023-02-28T06:40:40.136Z,79.20
2023-02-28T06:43:07.971Z,79.44
2023-02-28T06:45:35.073Z,79.52
2023-02-28T06:48:02.215Z,79.10
2023-02-28T06:50:30.610Z,79.26
2023-02-28T06:52:58.181Z,79.33
2023-02-28T06:55:25.223Z,79.47
2023-02-28T06:57:52.260Z,79.27
2023-02-28T07:00:20.060Z,78.65
2023-02-28T07:02:47.999Z,78.91
2023-02-28T07:05:15.120Z,78.41
2023-02-28T07:07:44.712Z,78.67
2023-02-28T07:10:12.703Z,78.22
2023-02-28T07:12:39.772Z,78.16
2023-02-28T07:15:07.357Z,78.34
2023-02-28T07:17:34.403Z,78.14
2023-02-28T07:20:01.527Z,77.85
2023-02-28T07:22:29.601Z,78.58
2023-02-28T07:24:56.639Z,78.11
2023-02-28T07:27:26.501Z,77.91
2023-02-28T07:29:54.143Z,77.83
2023-02-28T07:32:22.734Z,78.23
2023-02-28T07:34:50.208Z,77.22
2023-02-28T07:37:17.280Z,76.78
2023-02-28T07:39:44.366Z,76.40
2023-02-28T07:42:12.898Z,76.13
2023-02-28T07:44:41.482Z,76.35
2023-02-28T07:47:09.651Z,76.12
2023-02-28T07:49:37.412Z,75.78
2023-02-28T07:52:05.472Z,74.85
2023-02-28T07:54:32.748Z,74.49
2023-02-28T07:56:59.970Z,73.35
2023-02-28T07:59:27.006Z,72.95
2023-02-28T08:01:54.180Z,72.13
2023-02-28T08:04:21.445Z,72.17
2023-02-28T08:06:48.600Z,71.79
2023-02-28T08:09:15.754Z,71.38
2023-02-28T08:11:42.846Z,70.80
2023-02-28T08:14:09.913Z,70.11
2023-02-28T08:16:37.099Z,69.50
2023-02-28T08:19:04.752Z,69.33
2023-02-28T08:21:32.150Z,68.82
2023-02-28T08:23:59.255Z,69.05
2023-02-28T08:26:26.619Z,67.21
2023-02-28T08:28:55.194Z,67.05
2023-02-28T08:31:24.012Z,67.06
2023-02-28T08:33:53.897Z,66.35
2023-02-28T08:36:20.996Z,66.64
2023-02-28T08:38:48.079Z,65.10
2023-02-28T08:41:15.172Z,66.36
2023-02-28T08:43:42.400Z,66.00
2023-02-28T08:46:12.533Z,66.23
2023-02-28T08:48:39.796Z,64.29
2023-02-28T08:51:13.575Z,64.37
2023-02-28T08:53:41.491Z,64.64
2023-02-28T08:56:10.735Z,63.98
2023-02-28T08:58:38.256Z,63.60
2023-02-28T09:01:10.219Z,63.38
2023-02-28T09:03:37.352Z,61.68
2023-02-28T09:06:05.717Z,63.38
2023-02-28T09:08:32.919Z,63.71
2023-02-28T09:11:02.309Z,62.04
2023-02-28T09:13:30.382Z,62.55
2023-02-28T09:16:02.083Z,62.64
2023-02-28T09:18:29.736Z,63.72
2023-02-28T09:20:56.846Z,64.18
2023-02-28T09:23:23.948Z,62.36
2023-02-28T09:25:53.084Z,61.89
2023-02-28T09:28:20.537Z,62.48
2023-02-28T09:30:49.884Z,61.29
2023-02-28T09:33:17.777Z,61.47
2023-02-28T09:35:44.857Z,61.38
2023-02-28T09:38:12.253Z,61.74
2023-02-28T09:41:03.159Z,61.15
2023-02-28T09:43:37.121Z,60.22
2023-02-28T09:46:27.337Z,60.39
2023-02-28T09:48:56.887Z,59.57
2023-02-28T09:51:31.942Z,58.75
2023-02-28T09:54:01.867Z,60.43
2023-02-28T09:56:40.215Z,58.94
2023-02-28T09:59:18.722Z,59.13
2023-02-28T10:02:23.297Z,59.13
2023-02-28T10:05:06.337Z,59.67
2023-02-28T10:07:55.993Z,58.10
2023-02-28T10:10:29.047Z,58.02
2023-02-28T10:12:59.115Z,60.24
2023-02-28T10:15:29.016Z,59.86
2023-02-28T10:18:08.407Z,58.85
2023-02-28T10:20:40.160Z,56.47
2023-02-28T10:23:15.780Z,57.79
2023-02-28T10:25:48.987Z,57.85
2023-02-28T10:28:18.937Z,56.68
2023-02-28T10:30:53.543Z,57.32
2023-02-28T10:33:26.455Z,58.42
2023-02-28T10:35:53.873Z,58.08
2023-02-28T10:38:51.369Z,57.87
2023-02-28T10:41:30.476Z,57.21
2023-02-28T10:44:23.637Z,57.47
2023-02-28T10:46:51.776Z,56.85
2023-02-28T10:49:22.901Z,58.98
2023-02-28T10:51:58.020Z,59.08
2023-02-28T10:54:32.683Z,57.68
2023-02-28T10:57:19.813Z,57.96
2023-02-28T10:59:47.207Z,58.39
2023-02-28T11:02:36.003Z,56.74
2023-02-28T11:05:03.947Z,56.19
2023-02-28T11:07:41.520Z,57.11
2023-02-28T11:10:21.975Z,58.49
2023-02-28T11:12:53.117Z,57.79
2023-02-28T11:15:26.547Z,58.93
2023-02-28T11:18:15.100Z,57.68
2023-02-28T11:20:42.179Z,57.31
2023-02-28T11:23:13.536Z,57.33
2023-02-28T11:25:40.914Z,57.28
2023-02-28T11:28:27.172Z,58.74
2023-02-28T11:31:02.112Z,57.32
2023-02-28T11:33:30.539Z,58.56
2023-02-28T11:36:09.687Z,58.28
2023-02-28T11:38:37.466Z,57.90
2023-02-28T11:41:26.197Z,57.71
2023-02-28T11:44:20.185Z,57.65
2023-02-28T11:46:52.513Z,58.15
2023-02-28T11:50:16.953Z,56.98
2023-02-28T11:52:59.667Z,57.61
2023-02-28T11:55:28.982Z,57.59
2023-02-28T11:58:14.261Z,57.89
2023-02-28T12:00:45.824Z,57.40
2023-02-28T12:03:29.799Z,57.10
2023-02-28T12:06:17.330Z,57.28
2023-02-28T12:08:53.095Z,57.40
2023-02-28T12:11:32.842Z,57.18
2023-02-28T12:14:47.630Z,57.45
2023-02-28T12:17:20.170Z,56.32
2023-02-28T12:20:06.919Z,57.40
2023-02-28T12:23:07.813Z,57.68
2023-02-28T12:26:08.263Z,55.77
2023-02-28T12:28:39.169Z,54.68
2023-02-28T12:31:13.207Z,55.64
2023-02-28T12:33:45.047Z,55.87
2023-02-28T12:36:18.431Z,56.71
2023-02-28T12:38:49.183Z,55.30
2023-02-28T12:41:38.525Z,55.61
2023-02-28T12:44:13.583Z,55.51
2023-02-28T12:46:47.321Z,56.92
2023-02-28T12:49:18.861Z,56.65
2023-02-28T12:51:47.025Z,56.81
2023-02-28T12:54:29.009Z,57.19
2023-02-28T12:56:55.978Z,58.35
2023-02-28T12:59:38.098Z,57.94
2023-02-28T13:02:17.441Z,57.15
2023-02-28T13:04:59.204Z,58.34
2023-02-28T13:08:05.436Z,57.16
2023-02-28T13:10:44.677Z,57.02
2023-02-28T13:13:19.603Z,57.99
2023-02-28T13:16:07.239Z,57.07
2023-02-28T13:18:44.303Z,56.56
2023-02-28T13:21:28.328Z,55.73
2023-02-28T13:24:00.061Z,55.63
2023-02-28T13:26:39.324Z,56.38
2023-02-28T13:29:12.445Z,56.48
2023-02-28T13:32:07.186Z,56.07
2023-02-28T13:34:52.418Z,57.04
2023-02-28T13:37:22.631Z,56.98
2023-02-28T13:39:51.836Z,56.10
2023-02-28T13:42:38.447Z,56.35
2023-02-28T13:45:05.617Z,56.47
2023-02-28T13:47:36.159Z,57.21
2023-02-28T13:50:39.112Z,57.64
2023-02-28T13:53:15.068Z,57.69
2023-02-28T13:56:03.028Z,57.33
2023-02-28T13:58:43.132Z,57.13
2023-02-28T14:01:46.044Z,58.38
2023-02-28T14:04:48.606Z,57.34
2023-02-28T14:07:22.542Z,57.25
2023-02-28T14:10:09.426Z,58.29
2023-02-28T14:12:57.013Z,58.71
2023-02-28T14:15:39.959Z,57.81
2023-02-28T14:18:27.460Z,58.16
2023-02-28T14:21:17.296Z,58.66
2023-02-28T14:24:02.819Z,57.51
2023-02-28T14:26:54.308Z,57.78
2023-02-28T14:29:36.478Z,58.54
2023-02-28T14:32:29.472Z,58.34
2023-02-28T14:37:40.136Z,58.85
2023-02-28T14:40:17.450Z,58.69
2023-02-28T14:42:49.889Z,59.00
2023-02-28T14:45:21.530Z,57.92
2023-02-28T14:47:50.658Z,58.69
2023-02-28T14:50:27.297Z,58.62
2023-02-28T14:52:56.128Z,58.25
2023-02-28T14:55:27.439Z,58.15
2023-02-28T14:58:07.466Z,58.42
2023-02-28T15:00:40.461Z,57.77
2023-02-28T15:03:20.573Z,57.82
2023-02-28T15:05:59.361Z,57.71
2023-02-28T15:08:29.925Z,58.13
2023-02-28T15:11:17.463Z,57.50
2023-02-28T15:13:47.405Z,58.06
2023-02-28T15:16:21.400Z,59.14
2023-02-28T15:19:00.937Z,59.67
2023-02-28T15:21:40.380Z,59.91
2023-02-28T15:24:07.490Z,59.54
2023-02-28T15:26:39.634Z,59.93
2023-02-28T15:29:08.890Z,59.88
2023-02-28T15:31:55.763Z,60.03
2023-02-28T15:34:43.046Z,59.86
2023-02-28T15:37:34.989Z,59.75
2023-02-28T15:40:32.378Z,59.91
2023-02-28T15:43:08.323Z,60.24
2023-02-28T15:45:42.024Z,59.82
2023-02-28T15:48:28.240Z,60.64
2023-02-28T15:50:58.672Z,60.46
2023-02-28T15:53:37.947Z,61.23
2023-02-28T15:56:18.508Z,61.19
2023-02-28T15:58:45.629Z,61.65
2023-02-28T16:01:27.678Z,61.93
2023-02-28T16:03:58.835Z,61.43
2023-02-28T16:06:33.277Z,61.51
2023-02-28T16:09:00.340Z,62.11
2023-02-28T16:11:27.603Z,62.53
2023-02-28T16:13:55.072Z,62.82
2023-02-28T16:16:25.216Z,62.71
2023-02-28T16:18:52.657Z,62.32
2023-02-28T16:21:20.058Z,62.75
2023-02-28T16:23:47.107Z,62.39
2023-02-28T16:26:21.517Z,62.83
2023-02-28T16:28:48.646Z,63.33
2023-02-28T16:31:17.527Z,63.62
2023-02-28T16:33:45.892Z,63.46
2023-02-28T16:36:17.742Z,63.50
2023-02-28T16:38:45.094Z,64.01
2023-02-28T16:41:23.758Z,63.52
2023-02-28T16:43:53.564Z,63.44
2023-02-28T16:46:21.025Z,63.72
2023-02-28T16:48:52.400Z,63.38
2023-02-28T16:51:19.542Z,63.46
2023-02-28T16:53:46.932Z,64.08
2023-02-28T16:56:20.104Z,64.37
2023-02-28T16:58:47.896Z,64.47
2023-02-28T17:01:15.200Z,64.42
2023-02-28T17:03:42.466Z,64.27
2023-02-28T17:06:31.705Z,64.18
2023-02-28T17:09:00.130Z,64.68
2023-02-28T17:11:27.478Z,64.52
2023-02-28T17:13:57.936Z,64.82
2023-02-28T17:16:33.816Z,64.26
2023-02-28T17:19:03.498Z,64.81
2023-02-28T17:21:31.128Z,64.51
2023-02-28T17:23:58.788Z,64.88
2023-02-28T17:26:25.917Z,64.63
2023-02-28T17:28:53.342Z,65.13
2023-02-28T17:31:20.903Z,65.41
2023-02-28T17:33:47.941Z,65.43
2023-02-28T17:36:22.707Z,65.90
2023-02-28T17:38:50.276Z,65.80
2023-02-28T17:41:17.501Z,65.43
2023-02-28T17:43:44.570Z,65.79
2023-02-28T17:46:21.293Z,65.35
2023-02-28T17:48:49.473Z,64.99
2023-02-28T17:51:17.323Z,66.21
2023-02-28T17:53:44.664Z,66.13
2023-02-28T17:56:16.914Z,65.91
2023-02-28T17:58:43.996Z,66.10
2023-02-28T18:01:12.834Z,66.28
2023-02-28T18:03:40.832Z,66.64
2023-02-28T18:06:08.331Z,66.85
2023-02-28T18:08:36.184Z,66.38
2023-02-28T18:11:03.270Z,66.25
2023-02-28T18:13:30.304Z,66.33
2023-02-28T18:15:57.510Z,66.43
2023-02-28T18:18:24.669Z,66.47
2023-02-28T18:20:53.236Z,66.62
2023-02-28T18:23:21.541Z,67.10
2023-02-28T18:25:48.614Z,67.29
2023-02-28T18:28:15.647Z,66.99
2023-02-28T18:30:42.694Z,66.89
2023-02-28T18:33:09.852Z,66.81
2023-02-28T18:35:37.352Z,67.31
2023-02-28T18:38:11.018Z,67.26
2023-02-28T18:40:38.298Z,67.43
2023-02-28T18:43:05.407Z,67.32
2023-02-28T18:45:35.715Z,67.52
2023-02-28T18:48:02.807Z,67.07
2023-02-28T18:50:30.046Z,67.82
2023-02-28T18:52:59.517Z,67.51
2023-02-28T18:55:27.840Z,67.04
2023-02-28T18:57:54.967Z,67.00
2023-02-28T19:00:22.672Z,67.58
2023-02-28T19:02:50.604Z,66.89
2023-02-28T19:05:18.756Z,66.91
2023-02-28T19:07:46.634Z,67.73
2023-02-28T19:10:14.530Z,68.10
2023-02-28T19:12:43.345Z,68.03
2023-02-28T19:15:11.573Z,68.13
2023-02-28T19:17:38.971Z,68.57
2023-02-28T19:20:06.860Z,68.81
2023-02-28T19:22:33.960Z,68.59
2023-02-28T19:25:01.330Z,68.83
2023-02-28T19:27:28.366Z,68.78
2023-02-28T19:29:55.769Z,69.04
2023-02-28T19:32:23.010Z,69.29
2023-02-28T19:34:50.190Z,69.93
2023-02-28T19:37:17.628Z,69.85
2023-02-28T19:39:44.962Z,69.81
2023-02-28T19:42:14.308Z,69.67
2023-02-28T19:44:41.789Z,70.06
2023-02-28T19:47:09.144Z,69.41
2023-02-28T19:49:36.220Z,69.74
2023-02-28T19:52:03.682Z,69.34
2023-02-28T19:54:30.808Z,69.43
2023-02-28T19:56:58.446Z,69.66
2023-02-28T19:59:35.833Z,70.23
2023-02-28T20:02:07.041Z,69.79
2023-02-28T20:04:34.189Z,70.71
2023-02-28T20:07:01.277Z,70.15
2023-02-28T20:09:31.687Z,69.82
2023-02-28T20:12:02.590Z,70.58
2023-02-28T20:14:30.786Z,70.65
2023-02-28T20:16:58.373Z,70.53
2023-02-28T20:19:25.980Z,70.66
2023-02-28T20:21:53.025Z,70.37
2023-02-28T20:24:23.081Z,71.00
2023-02-28T20:26:50.211Z,70.68
2023-02-28T20:29:17.262Z,71.27
2023-02-28T20:31:44.373Z,71.50
2023-02-28T20:34:11.714Z,71.70
2023-02-28T20:36:38.786Z,71.37
2023-02-28T20:39:06.051Z,71.59
2023-02-28T20:41:33.175Z,72.33
2023-02-28T20:44:02.224Z,71.82
2023-02-28T20:46:31.289Z,71.61
2023-02-28T20:48:58.653Z,71.77
2023-02-28T20:51:25.777Z,71.71
2023-02-28T20:53:52.818Z,71.18
2023-02-28T20:56:22.258Z,71.92
2023-02-28T20:58:52.008Z,71.84
2023-02-28T21:01:25.853Z,72.04
2023-02-28T21:03:56.133Z,72.49
2023-02-28T21:06:26.729Z,72.92
2023-02-28T21:08:54.370Z,72.38
2023-02-28T21:11:24.756Z,72.84
2023-02-28T21:13:52.632Z,72.91
2023-02-28T21:16:22.452Z,73.38
2023-02-28T21:18:49.892Z,73.26
2023-02-28T21:21:19.567Z,73.42
2023-02-28T21:23:47.803Z,73.21
2023-02-28T21:26:20.217Z,73.10
2023-02-28T21:28:51.566Z,73.11
2023-02-28T21:31:20.373Z,73.19
2023-02-28T21:33:47.810Z,73.02
2023-02-28T21:36:17.359Z,73.17
2023-02-28T21:38:46.374Z,73.35
2023-02-28T21:41:15.872Z,73.60
2023-02-28T21:43:43.552Z,73.71
2023-02-28T21:46:13.330Z,73.83
2023-02-28T21:48:40.564Z,73.64
2023-02-28T21:51:11.871Z,73.79
2023-02-28T21:53:39.712Z,74.17
2023-02-28T21:56:10.432Z,74.38
2023-02-28T21:58:37.505Z,74.55
2023-02-28T22:01:06.151Z,74.19
2023-02-28T22:03:33.678Z,74.36
2023-02-28T22:06:00.784Z,74.24
2023-02-28T22:08:28.149Z,74.30
2023-02-28T22:10:55.217Z,74.51
2023-02-28T22:13:22.277Z,74.53
2023-02-28T22:15:49.340Z,74.65
2023-02-28T22:18:16.434Z,74.24
2023-02-28T22:20:43.505Z,74.76
2023-02-28T22:23:10.646Z,74.59
2023-02-28T22:25:38.325Z,74.24
2023-02-28T22:28:05.397Z,74.16
2023-02-28T22:30:32.577Z,74.49
2023-02-28T22:32:59.685Z,74.41
2023-02-28T22:35:26.787Z,74.47
2023-02-28T22:37:53.860Z,74.66
2023-02-28T22:40:20.981Z,74.79
2023-02-28T22:42:48.035Z,75.27
2023-02-28T22:45:15.330Z,74.88
2023-02-28T22:47:42.375Z,74.76
2023-02-28T22:50:10.095Z,74.98
2023-02-28T22:52:40.340Z,74.26
2023-02-28T22:55:08.777Z,74.75
2023-02-28T22:57:36.293Z,75.06
2023-02-28T23:00:07.057Z,74.85
2023-02-28T23:02:34.508Z,74.67
2023-02-28T23:05:01.929Z,74.57
2023-02-28T23:07:29.020Z,74.61
2023-02-28T23:09:56.407Z,74.55
2023-02-28T23:12:23.452Z,74.74
2023-02-28T23:14:50.584Z,75.23
2023-02-28T23:17:17.649Z,75.38
2023-02-28T23:19:44.797Z,74.85
2023-02-28T23:22:11.957Z,74.93
2023-02-28T23:24:39.022Z,75.08
2023-02-28T23:27:06.821Z,75.38
2023-02-28T23:29:34.453Z,75.18
2023-02-28T23:32:02.033Z,75.12
2023-02-28T23:34:32.146Z,75.33
2023-02-28T23:37:01.556Z,75.30
2023-02-28T23:39:29.745Z,75.21
2023-02-28T23:41:57.278Z,75.71
2023-02-28T23:44:24.408Z,75.50
2023-02-28T23:46:52.627Z,75.40
2023-02-28T23:49:23.408Z,75.61
2023-02-28T23:51:51.536Z,75.67
2023-02-28T23:54:19.058Z,75.82
2023-02-28T23:56:46.420Z,75.77
2023-02-28T23:59:13.563Z,75.73
